createdAt,value
2023-03-07T00:01:33.293Z,5.15
2023-03-07T00:04:00.878Z,5.00
2023-03-07T00:06:30.538Z,4.97
2023-03-07T00:09:00.828Z,5.15
2023-03-07T00:11:28.460Z,5.07
2023-03-07T00:13:57.877Z,5.00
2023-03-07T00:16:26.065Z,5.05
2023-03-07T00:18:55.616Z,5.18
2023-03-07T00:21:22.913Z,6.82
2023-03-07T00:23:52.772Z,5.40
2023-03-07T00:26:23.256Z,5.10
2023-03-07T00:28:54.961Z,5.15
2023-03-07T00:31:26.817Z,5.30
2023-03-07T00:33:56.818Z,4.80
2023-03-07T00:36:24.160Z,5.22
2023-03-07T00:38:51.962Z,5.25
2023-03-07T00:41:26.005Z,4.82
2023-03-07T00:43:57.361Z,4.70
2023-03-07T00:46:25.961Z,4.88
2023-03-07T00:48:58.206Z,4.72
2023-03-07T00:51:25.311Z,5.10
2023-03-07T00:53:54.520Z,4.28
2023-03-07T00:56:24.476Z,4.93
2023-03-07T00:58:55.113Z,4.07
2023-03-07T01:01:25.431Z,4.40
2023-03-07T01:03:53.840Z,4.82
2023-03-07T01:06:26.707Z,4.10
2023-03-07T01:08:59.753Z,4.45
2023-03-07T01:11:31.120Z,4.50
2023-03-07T01:14:04.377Z,4.70
2023-03-07T01:16:40.162Z,4.13
2023-03-07T01:19:10.022Z,4.20
2023-03-07T01:21:40.540Z,4.03
2023-03-07T01:24:10.817Z,4.00
2023-03-07T01:26:37.813Z,4.35
2023-03-07T01:29:06.694Z,4.55
2023-03-07T01:31:36.228Z,3.65
2023-03-07T01:34:07.407Z,4.07
2023-03-07T01:36:38.457Z,4.40
2023-03-07T01:39:10.343Z,4.20
2023-03-07T01:41:40.942Z,4.07
2023-03-07T01:44:25.968Z,4.25
2023-03-07T01:46:54.571Z,3.95
2023-03-07T01:49:46.310Z,4.25
2023-03-07T01:52:54.308Z,4.22
2023-03-07T01:55:35.591Z,3.47
2023-03-07T01:58:11.055Z,4.32
2023-03-07T02:00:41.270Z,4.25
2023-03-07T02:03:11.165Z,4.05
2023-03-07T02:05:57.387Z,4.30
2023-03-07T02:08:28.175Z,3.70
2023-03-07T02:10:57.525Z,4.50
2023-03-07T02:13:28.979Z,4.90
2023-03-07T02:16:02.219Z,4.22
2023-03-07T02:18:32.784Z,4.70
2023-03-07T02:21:32.748Z,4.32
2023-03-07T02:24:31.726Z,3.90
2023-03-07T02:27:01.628Z,3.95
2023-03-07T02:29:30.812Z,4.43
2023-03-07T02:31:57.706Z,4.15
2023-03-07T02:34:29.182Z,3.92
2023-03-07T02:37:13.654Z,3.72
2023-03-07T02:39:48.353Z,3.67
2023-03-07T02:42:22.596Z,3.92
2023-03-07T02:44:58.886Z,3.65
2023-03-07T02:47:26.515Z,3.75
2023-03-07T02:49:56.328Z,4.40
2023-03-07T02:52:24.105Z,4.00
2023-03-07T02:54:53.556Z,4.10
2023-03-07T02:57:20.613Z,3.95
2023-03-07T02:59:47.729Z,4.20
2023-03-07T03:02:14.650Z,3.95
2023-03-07T03:04:44.116Z,3.80
2023-03-07T03:07:11.246Z,3.58
2023-03-07T03:09:38.110Z,3.83
2023-03-07T03:12:05.293Z,4.20
2023-03-07T03:14:35.044Z,3.90
2023-03-07T03:17:01.959Z,3.83
2023-03-07T03:19:29.733Z,3.53
2023-03-07T03:21:57.741Z,3.90
2023-03-07T03:24:24.616Z,3.97
2023-03-07T03:26:51.453Z,3.85
2023-03-07T03:29:18.368Z,3.83
2023-03-07T03:31:45.385Z,4.20
2023-03-07T03:34:14.200Z,4.00
2023-03-07T03:36:41.009Z,3.92
2023-03-07T03:39:11.274Z,3.55
2023-03-07T03:41:38.656Z,4.15
2023-03-07T03:44:05.717Z,3.90
2023-03-07T03:46:34.815Z,4.25
2023-03-07T03:49:01.882Z,4.32
2023-03-07T03:51:33.792Z,3.97
2023-03-07T03:54:00.716Z,4.03
2023-03-07T03:56:27.952Z,4.28
2023-03-07T03:58:57.161Z,4.30
2023-03-07T04:01:26.683Z,4.03
2023-03-07T04:03:54.924Z,4.40
2023-03-07T04:06:26.066Z,4.03
2023-03-07T04:08:54.700Z,4.13
2023-03-07T04:11:23.319Z,4.18
2023-03-07T04:13:50.629Z,4.28
2023-03-07T04:16:18.687Z,5.38
2023-03-07T04:18:50.174Z,4.10
2023-03-07T04:21:17.644Z,5.05
2023-03-07T04:23:44.574Z,4.40
2023-03-07T04:26:11.983Z,4.25
2023-03-07T04:28:44.861Z,4.88
2023-03-07T04:31:19.694Z,4.32
2023-03-07T04:33:49.845Z,4.25
2023-03-07T04:36:17.611Z,4.40
2023-03-07T04:38:52.685Z,4.35
2023-03-07T04:41:23.596Z,4.38
2023-03-07T04:43:52.672Z,4.45
2023-03-07T04:46:20.609Z,4.75
2023-03-07T04:48:47.814Z,4.32
2023-03-07T04:51:15.142Z,5.15
2023-03-07T04:53:46.631Z,4.78
2023-03-07T04:56:16.250Z,4.85
2023-03-07T04:58:48.848Z,4.70
2023-03-07T05:01:15.718Z,4.45
2023-03-07T05:03:42.733Z,5.25
2023-03-07T05:06:16.161Z,4.75
2023-03-07T05:08:45.566Z,4.80
2023-03-07T05:11:14.608Z,4.60
2023-03-07T05:13:41.528Z,4.90
2023-03-07T05:16:11.683Z,4.55
2023-03-07T05:18:40.874Z,4.55
2023-03-07T05:21:08.036Z,4.60
2023-03-07T05:23:35.031Z,4.85
2023-03-07T05:26:02.021Z,4.40
2023-03-07T05:28:28.958Z,4.50
2023-03-07T05:30:56.021Z,4.38
2023-03-07T05:33:25.624Z,4.60
2023-03-07T05:35:55.640Z,4.90
2023-03-07T05:38:22.502Z,5.00
2023-03-07T05:40:51.591Z,5.43
2023-03-07T05:43:18.411Z,5.28
2023-03-07T05:45:45.271Z,4.82
2023-03-07T05:48:14.582Z,5.10
2023-03-07T05:50:42.640Z,4.97
2023-03-07T05:53:09.528Z,5.05
2023-03-07T05:55:36.475Z,5.03
2023-03-07T05:58:03.388Z,4.82
2023-03-07T06:00:30.233Z,4.80
2023-03-07T06:03:00.872Z,4.40
2023-03-07T06:05:27.770Z,4.70
2023-03-07T06:07:54.699Z,4.82
2023-03-07T06:10:22.060Z,4.93
2023-03-07T06:12:55.937Z,4.47
2023-03-07T06:15:24.761Z,4.57
2023-03-07T06:17:59.732Z,4.55
2023-03-07T06:20:26.631Z,4.78
2023-03-07T06:22:53.500Z,4.88
2023-03-07T06:25:21.698Z,4.88
2023-03-07T06:27:51.251Z,4.78
2023-03-07T06:30:18.530Z,6.95
2023-03-07T06:32:45.623Z,8.05
2023-03-07T06:35:14.987Z,7.95
2023-03-07T06:37:41.984Z,5.93
2023-03-07T06:40:10.810Z,6.05
2023-03-07T06:42:40.721Z,6.20
2023-03-07T06:45:08.351Z,6.00
2023-03-07T06:47:37.533Z,5.55
2023-03-07T06:50:05.188Z,5.03
2023-03-07T06:52:32.176Z,5.57
2023-03-07T06:54:59.079Z,4.78
2023-03-07T06:57:29.335Z,5.07
2023-03-07T06:59:56.253Z,5.35
2023-03-07T07:02:25.482Z,4.63
2023-03-07T07:04:52.554Z,5.43
2023-03-07T07:07:24.340Z,5.50
2023-03-07T07:09:51.393Z,4.70
2023-03-07T07:12:19.242Z,5.20
2023-03-07T07:14:49.091Z,5.25
2023-03-07T07:17:18.297Z,5.40
2023-03-07T07:19:47.651Z,5.18
2023-03-07T07:22:19.342Z,5.18
2023-03-07T07:24:46.199Z,5.28
2023-03-07T07:27:13.088Z,5.75
2023-03-07T07:29:42.134Z,5.20
2023-03-07T07:32:09.324Z,5.85
2023-03-07T07:34:41.478Z,5.05
2023-03-07T07:37:08.465Z,5.45
2023-03-07T07:39:35.400Z,5.82
2023-03-07T07:42:02.367Z,6.50
2023-03-07T07:44:31.058Z,5.50
2023-03-07T07:47:01.032Z,5.82
2023-03-07T07:49:28.324Z,5.93
2023-03-07T07:51:55.512Z,5.25
2023-03-07T07:54:22.440Z,5.97
2023-03-07T07:56:49.298Z,5.88
2023-03-07T07:59:18.453Z,5.85
2023-03-07T08:01:45.543Z,5.85
2023-03-07T08:04:12.777Z,5.53
2023-03-07T08:06:44.150Z,5.57
2023-03-07T08:09:11.308Z,5.57
2023-03-07T08:11:38.192Z,5.40
2023-03-07T08:14:05.098Z,5.13
2023-03-07T08:16:34.455Z,5.70
2023-03-07T08:19:03.938Z,5.60
2023-03-07T08:21:35.368Z,5.55
2023-03-07T08:24:04.655Z,5.57
2023-03-07T08:26:32.004Z,5.65
2023-03-07T08:29:03.502Z,5.55
2023-03-07T08:31:30.490Z,5.53
2023-03-07T08:33:59.676Z,5.75
2023-03-07T08:36:26.637Z,6.00
2023-03-07T08:38:53.578Z,5.35
2023-03-07T08:41:22.613Z,5.55
2023-03-07T08:43:49.580Z,5.32
2023-03-07T08:46:18.917Z,5.15
2023-03-07T08:48:45.935Z,5.97
2023-03-07T08:51:17.614Z,5.55
2023-03-07T08:56:16.861Z,4.93
2023-03-07T08:58:44.206Z,4.97
2023-03-07T09:01:12.954Z,5.93
2023-03-07T09:03:39.918Z,5.22
2023-03-07T09:06:06.878Z,5.15
2023-03-07T09:08:36.178Z,5.90
2023-03-07T09:11:05.533Z,5.20
2023-03-07T09:13:43.102Z,4.95
2023-03-07T09:16:13.756Z,4.77
2023-03-07T09:18:40.639Z,5.22
2023-03-07T09:21:07.554Z,5.38
2023-03-07T09:23:34.508Z,5.35
2023-03-07T09:26:05.841Z,5.30
2023-03-07T09:28:35.059Z,5.82
2023-03-07T09:31:11.583Z,5.35
2023-03-07T09:33:39.371Z,4.70
2023-03-07T09:36:12.212Z,4.72
2023-03-07T09:38:41.933Z,4.63
2023-03-07T09:41:33.895Z,5.32
2023-03-07T09:44:10.929Z,4.70
2023-03-07T09:46:49.858Z,5.35
2023-03-07T09:49:50.377Z,5.05
2023-03-07T09:52:35.919Z,5.18
2023-03-07T09:55:19.101Z,4.72
2023-03-07T09:57:50.539Z,4.85
2023-03-07T10:00:40.514Z,4.90
2023-03-07T10:03:26.075Z,5.05
2023-03-07T10:05:58.766Z,5.13
2023-03-07T10:08:33.182Z,4.82
2023-03-07T10:11:23.290Z,5.10
2023-03-07T10:14:05.158Z,4.82
2023-03-07T10:17:14.001Z,4.70
2023-03-07T10:19:53.774Z,4.90
2023-03-07T10:22:42.884Z,5.80
2023-03-07T10:25:26.168Z,4.72
2023-03-07T10:28:31.008Z,4.85
2023-03-07T10:31:10.740Z,4.30
2023-03-07T10:33:40.818Z,5.15
2023-03-07T10:36:16.104Z,5.50
2023-03-07T10:39:39.177Z,4.78
2023-03-07T10:42:06.493Z,5.00
2023-03-07T10:44:39.142Z,4.72
2023-03-07T10:47:06.333Z,4.88
2023-03-07T10:49:39.622Z,4.57
2023-03-07T10:52:16.483Z,5.03
2023-03-07T10:54:43.374Z,4.65
2023-03-07T10:57:16.130Z,4.68
2023-03-07T10:59:48.537Z,4.40
2023-03-07T11:02:45.421Z,4.40
2023-03-07T11:05:31.968Z,4.50
2023-03-07T11:08:00.194Z,3.88
2023-03-07T11:10:40.219Z,4.63
2023-03-07T11:13:19.796Z,4.47
2023-03-07T11:15:47.343Z,4.57
2023-03-07T11:18:39.162Z,4.00
2023-03-07T11:24:26.184Z,4.13
2023-03-07T11:27:02.336Z,4.60
2023-03-07T11:29:33.632Z,4.43
2023-03-07T11:32:14.508Z,4.55
2023-03-07T11:34:51.173Z,4.57
2023-03-07T11:37:34.515Z,4.25
2023-03-07T11:40:24.514Z,4.53
2023-03-07T11:43:23.028Z,4.70
2023-03-07T11:46:03.924Z,4.82
2023-03-07T11:48:50.529Z,5.07
2023-03-07T11:51:55.667Z,3.90
2023-03-07T11:54:39.392Z,5.03
2023-03-07T11:57:38.182Z,4.65
2023-03-07T12:00:35.976Z,5.20
2023-03-07T12:03:37.216Z,4.93
2023-03-07T12:06:55.399Z,4.50
2023-03-07T12:09:45.978Z,4.63
2023-03-07T12:12:27.663Z,4.88
2023-03-07T12:18:07.560Z,4.25
2023-03-07T12:20:51.733Z,4.90
2023-03-07T12:23:36.225Z,4.78
2023-03-07T12:26:27.397Z,4.80
2023-03-07T12:29:43.303Z,5.22
2023-03-07T12:32:18.513Z,4.93
2023-03-07T12:34:59.103Z,5.43
2023-03-07T12:37:36.571Z,4.13
2023-03-07T12:40:14.275Z,4.50
2023-03-07T12:43:07.374Z,5.18
2023-03-07T12:46:20.958Z,4.80
2023-03-07T12:49:00.041Z,4.95
2023-03-07T12:51:55.253Z,4.50
2023-03-07T12:54:30.082Z,4.78
2023-03-07T12:57:11.493Z,4.75
2023-03-07T12:59:43.436Z,4.72
2023-03-07T13:02:32.292Z,5.10
2023-03-07T13:05:04.724Z,4.50
2023-03-07T13:07:35.981Z,4.43
2023-03-07T13:10:07.600Z,4.90
2023-03-07T13:12:37.089Z,4.80
2023-03-07T13:15:27.768Z,4.50
2023-03-07T13:17:58.182Z,4.03
2023-03-07T13:20:28.057Z,4.32
2023-03-07T13:22:55.006Z,4.53
2023-03-07T13:25:40.988Z,4.78
2023-03-07T13:28:34.666Z,4.60
2023-03-07T13:31:15.784Z,4.57
2023-03-07T13:33:45.604Z,4.53
2023-03-07T13:36:39.060Z,4.60
2023-03-07T13:39:58.168Z,4.53
2023-03-07T13:42:50.292Z,4.22
2023-03-07T13:45:41.440Z,4.05
2023-03-07T13:48:11.790Z,4.28
2023-03-07T13:50:58.643Z,4.30
2023-03-07T13:53:31.397Z,3.75
2023-03-07T13:56:19.886Z,4.10
2023-03-07T13:59:13.003Z,4.00
2023-03-07T14:01:40.769Z,4.18
2023-03-07T14:04:40.300Z,4.18
2023-03-07T14:07:39.511Z,4.80
2023-03-07T14:10:31.188Z,4.38
2023-03-07T14:13:12.961Z,4.05
2023-03-07T14:19:15.500Z,4.10
2023-03-07T14:22:00.981Z,4.40
2023-03-07T14:24:57.927Z,4.30
2023-03-07T14:27:24.891Z,4.25
2023-03-07T14:29:57.131Z,4.35
2023-03-07T14:32:32.401Z,4.28
2023-03-07T14:35:02.023Z,4.38
2023-03-07T14:37:32.986Z,4.35
2023-03-07T14:40:03.354Z,4.53
2023-03-07T14:42:44.861Z,4.63
2023-03-07T14:45:37.677Z,4.35
2023-03-07T14:48:34.914Z,4.30
2023-03-07T14:51:14.493Z,4.35
2023-03-07T14:53:42.943Z,4.68
2023-03-07T14:56:10.662Z,4.82
2023-03-07T14:58:49.953Z,4.45
2023-03-07T15:01:19.730Z,4.18
2023-03-07T15:03:52.783Z,4.68
2023-03-07T15:06:24.255Z,4.40
2023-03-07T15:08:54.680Z,4.68
2023-03-07T15:12:19.907Z,4.90
2023-03-07T15:14:56.861Z,5.07
2023-03-07T15:17:28.907Z,4.22
2023-03-07T15:20:18.261Z,4.30
2023-03-07T15:22:45.254Z,4.50
2023-03-07T15:25:26.185Z,4.60
2023-03-07T15:28:28.766Z,4.95
2023-03-07T15:31:00.390Z,4.43
2023-03-07T15:36:20.753Z,4.03
2023-03-07T15:38:55.355Z,5.13
2023-03-07T15:41:36.001Z,4.63
2023-03-07T15:44:12.218Z,4.30
2023-03-07T15:46:53.731Z,4.97
2023-03-07T15:49:31.253Z,4.68
2023-03-07T15:52:01.624Z,4.78
2023-03-07T15:54:43.226Z,4.75
2023-03-07T15:57:34.304Z,4.53
2023-03-07T16:00:41.207Z,4.05
2023-03-07T16:03:28.477Z,4.68
2023-03-07T16:05:57.640Z,5.38
2023-03-07T16:08:27.661Z,4.80
2023-03-07T16:11:04.786Z,5.00
2023-03-07T16:13:40.717Z,5.38
2023-03-07T16:16:22.159Z,4.95
2023-03-07T16:18:52.920Z,4.68
2023-03-07T16:21:20.646Z,5.05
2023-03-07T16:23:50.770Z,5.50
2023-03-07T16:26:23.922Z,5.30
2023-03-07T16:28:54.419Z,5.47
2023-03-07T16:31:21.824Z,5.03
2023-03-07T16:33:51.352Z,5.68
2023-03-07T16:36:18.669Z,5.28
2023-03-07T16:38:47.221Z,4.68
2023-03-07T16:41:22.925Z,5.03
2023-03-07T16:43:57.713Z,4.88
2023-03-07T16:46:26.101Z,5.13
2023-03-07T16:48:53.007Z,5.03
2023-03-07T16:51:25.650Z,5.07
2023-03-07T16:53:59.742Z,4.97
2023-03-07T16:56:32.478Z,5.18
2023-03-07T16:59:00.636Z,4.47
2023-03-07T17:01:29.983Z,4.88
2023-03-07T17:03:56.954Z,4.57
2023-03-07T17:06:37.183Z,4.63
2023-03-07T17:11:49.232Z,4.22
2023-03-07T17:14:18.155Z,4.60
2023-03-07T17:16:48.061Z,6.63
2023-03-07T17:19:32.697Z,5.32
2023-03-07T17:22:01.993Z,5.00
2023-03-07T17:24:29.755Z,5.13
2023-03-07T17:27:00.920Z,6.68
2023-03-07T17:29:37.404Z,8.25
2023-03-07T17:32:04.982Z,6.72
2023-03-07T17:34:37.075Z,5.45
2023-03-07T17:37:05.238Z,5.13
2023-03-07T17:39:34.347Z,5.43
2023-03-07T17:42:02.095Z,5.15
2023-03-07T17:44:32.117Z,5.03
2023-03-07T17:46:59.425Z,5.07
2023-03-07T17:49:36.224Z,5.85
2023-03-07T17:52:05.331Z,6.47
2023-03-07T17:54:32.973Z,6.00
2023-03-07T17:57:03.384Z,6.38
2023-03-07T17:59:33.188Z,5.40
2023-03-07T18:02:05.707Z,9.70
2023-03-07T18:04:33.407Z,10.23
2023-03-07T18:07:04.642Z,8.80
2023-03-07T18:09:34.999Z,6.00
2023-03-07T18:12:01.965Z,5.45
2023-03-07T18:14:30.635Z,6.97
2023-03-07T18:16:57.549Z,6.80
2023-03-07T18:19:27.032Z,7.50
2023-03-07T18:21:57.335Z,13.60
2023-03-07T18:24:28.045Z,6.93
2023-03-07T18:26:56.884Z,6.33
2023-03-07T18:29:24.247Z,7.32
2023-03-07T18:31:51.231Z,6.40
2023-03-07T18:34:18.153Z,5.63
2023-03-07T18:36:51.462Z,5.55
2023-03-07T18:39:22.648Z,5.57
2023-03-07T18:41:50.451Z,5.85
2023-03-07T18:44:20.462Z,5.40
2023-03-07T18:46:47.442Z,5.88
2023-03-07T18:49:18.917Z,4.93
2023-03-07T18:51:46.181Z,5.40
2023-03-07T18:54:15.670Z,4.85
2023-03-07T18:56:46.738Z,4.90
2023-03-07T18:59:13.952Z,4.68
2023-03-07T19:01:41.185Z,5.32
2023-03-07T19:04:11.785Z,5.47
2023-03-07T19:06:44.644Z,5.03
2023-03-07T19:09:18.036Z,7.75
2023-03-07T19:11:45.755Z,5.78
2023-03-07T19:14:13.587Z,5.57
2023-03-07T19:16:41.132Z,5.50
2023-03-07T19:19:10.369Z,11.50
2023-03-07T19:21:41.851Z,5.78
2023-03-07T19:24:13.741Z,5.10
2023-03-07T19:26:43.322Z,4.95
2023-03-07T19:29:12.098Z,5.15
2023-03-07T19:31:44.440Z,5.10
2023-03-07T19:34:11.479Z,5.35
2023-03-07T19:36:41.174Z,5.72
2023-03-07T19:39:15.027Z,5.43
2023-03-07T19:41:44.720Z,4.68
2023-03-07T19:44:12.234Z,5.55
2023-03-07T19:46:46.130Z,5.82
2023-03-07T19:49:17.222Z,5.28
2023-03-07T19:51:49.013Z,4.57
2023-03-07T19:54:20.432Z,4.50
2023-03-07T19:56:47.297Z,4.80
2023-03-07T19:59:14.404Z,4.97
2023-03-07T20:01:44.001Z,5.00
2023-03-07T20:04:16.117Z,5.18
2023-03-07T20:06:44.648Z,5.15
2023-03-07T20:09:13.298Z,5.10
2023-03-07T20:11:43.309Z,4.47
2023-03-07T20:14:14.509Z,4.55
2023-03-07T20:16:41.997Z,4.82
2023-03-07T20:19:13.405Z,4.45
2023-03-07T20:21:44.385Z,5.00
2023-03-07T20:24:13.458Z,5.30
2023-03-07T20:26:43.496Z,5.10
2023-03-07T20:29:11.407Z,4.63
2023-03-07T20:31:39.721Z,4.95
2023-03-07T20:34:08.048Z,4.43
2023-03-07T20:36:37.163Z,4.72
2023-03-07T20:39:07.997Z,5.35
2023-03-07T20:41:35.763Z,5.05
2023-03-07T20:44:06.447Z,4.75
2023-03-07T20:46:37.823Z,5.40
2023-03-07T20:49:04.909Z,5.15
2023-03-07T20:51:36.239Z,4.90
2023-03-07T20:54:06.897Z,5.38
2023-03-07T20:56:38.410Z,5.07
2023-03-07T20:59:07.280Z,5.20
2023-03-07T21:01:37.415Z,5.47
2023-03-07T21:04:09.237Z,5.40
2023-03-07T21:06:38.669Z,5.53
2023-03-07T21:09:08.541Z,5.30
2023-03-07T21:11:37.612Z,4.90
2023-03-07T21:14:07.653Z,5.32
2023-03-07T21:16:39.921Z,4.75
2023-03-07T21:19:10.902Z,5.05
2023-03-07T21:21:39.428Z,5.38
2023-03-07T21:24:11.892Z,4.85
2023-03-07T21:26:41.266Z,5.45
2023-03-07T21:29:09.085Z,4.75
2023-03-07T21:31:38.835Z,5.03
2023-03-07T21:34:13.607Z,4.97
2023-03-07T21:36:40.831Z,4.90
2023-03-07T21:39:09.905Z,4.68
2023-03-07T21:41:40.060Z,4.53
2023-03-07T21:44:10.110Z,4.63
2023-03-07T21:46:37.345Z,4.80
2023-03-07T21:49:04.302Z,5.00
2023-03-07T21:51:31.275Z,4.57
2023-03-07T21:53:58.329Z,4.13
2023-03-07T21:56:27.856Z,4.40
2023-03-07T21:58:54.866Z,4.50
2023-03-07T22:01:28.636Z,4.45
2023-03-07T22:04:00.810Z,4.05
2023-03-07T22:06:28.647Z,4.18
2023-03-07T22:08:58.521Z,4.45
2023-03-07T22:11:25.453Z,4.55
2023-03-07T22:13:54.921Z,4.68
2023-03-07T22:16:26.358Z,3.90
2023-03-07T22:18:57.979Z,4.28
2023-03-07T22:21:26.376Z,3.92
2023-03-07T22:24:00.546Z,4.78
2023-03-07T22:26:29.579Z,4.57
2023-03-07T22:28:59.012Z,5.00
2023-03-07T22:31:26.328Z,4.38
2023-03-07T22:33:55.934Z,4.20
2023-03-07T22:36:23.034Z,4.40
2023-03-07T22:38:58.700Z,4.63
2023-03-07T22:41:26.472Z,3.85
2023-03-07T22:43:53.874Z,4.47
2023-03-07T22:46:21.844Z,3.83
2023-03-07T22:48:55.712Z,4.93
2023-03-07T22:51:24.935Z,4.50
2023-03-07T22:53:54.627Z,4.57
2023-03-07T22:56:27.474Z,4.65
2023-03-07T22:58:54.996Z,4.43
2023-03-07T23:01:25.829Z,4.65
2023-03-07T23:03:54.982Z,4.57
2023-03-07T23:06:23.887Z,4.88
2023-03-07T23:08:54.287Z,5.35
2023-03-07T23:11:24.341Z,5.75
2023-03-07T23:13:54.402Z,5.85
2023-03-07T23:16:25.761Z,5.43
2023-03-07T23:18:55.415Z,5.90
2023-03-07T23:21:29.169Z,4.95
2023-03-07T23:24:00.204Z,4.55
2023-03-07T23:26:38.889Z,5.55
2023-03-07T23:29:07.635Z,4.82
2023-03-07T23:31:39.777Z,5.07
2023-03-07T23:34:17.622Z,5.50
2023-03-07T23:36:45.122Z,4.93
2023-03-07T23:39:12.865Z,4.82
2023-03-07T23:41:39.885Z,4.85
2023-03-07T23:44:06.944Z,5.50
2023-03-07T23:46:34.312Z,4.88
2023-03-07T23:49:03.582Z,5.55
2023-03-07T23:51:35.596Z,6.38
2023-03-07T23:54:02.915Z,5.93
2023-03-07T23:56:34.407Z,5.85
2023-03-07T23:59:01.311Z,5.97
